createdAt,value
2023-03-08T00:00:48.818Z,17.57
2023-03-08T00:03:17.615Z,16.93
2023-03-08T00:05:46.025Z,14.53
2023-03-08T00:08:14.620Z,16.43
2023-03-08T00:10:43.028Z,16.87
2023-03-08T00:13:12.825Z,16.60
2023-03-08T00:15:41.553Z,16.73
2023-03-08T00:18:09.978Z,15.27
2023-03-08T00:20:38.415Z,18.23
2023-03-08T00:23:06.771Z,16.63
2023-03-08T00:25:35.152Z,18.30
2023-03-08T00:28:03.664Z,18.63
2023-03-08T00:30:33.427Z,20.23
2023-03-08T00:33:01.829Z,18.77
2023-03-08T00:35:30.257Z,16.33
2023-03-08T00:37:58.661Z,17.07
2023-03-08T00:40:27.091Z,17.40
2023-03-08T00:42:55.486Z,17.20
2023-03-08T00:45:23.914Z,15.47
2023-03-08T00:47:53.659Z,19.10
2023-03-08T00:50:22.204Z,18.87
2023-03-08T00:52:50.643Z,16.93
2023-03-08T00:55:19.051Z,15.67
2023-03-08T00:57:48.985Z,17.33
2023-03-08T01:00:18.016Z,16.60
2023-03-08T01:02:46.440Z,20.93
2023-03-08T01:05:16.375Z,16.70
2023-03-08T01:07:45.791Z,17.73
2023-03-08T01:10:14.290Z,15.83
2023-03-08T01:12:42.685Z,18.67
2023-03-08T01:15:11.393Z,20.33
2023-03-08T01:17:40.797Z,19.50
2023-03-08T01:20:10.346Z,15.47
2023-03-08T01:22:40.120Z,16.00
2023-03-08T01:25:08.751Z,19.27
2023-03-08T01:27:37.135Z,15.20
2023-03-08T01:30:06.000Z,19.13
2023-03-08T01:32:34.470Z,16.87
2023-03-08T01:35:04.649Z,18.03
2023-03-08T01:37:34.297Z,19.13
2023-03-08T01:40:05.470Z,16.13
2023-03-08T01:42:34.203Z,17.47
2023-03-08T01:45:04.424Z,16.47
2023-03-08T01:47:36.123Z,22.27
2023-03-08T01:50:30.940Z,17.17
2023-03-08T01:53:00.307Z,17.40
2023-03-08T01:55:30.450Z,16.13
2023-03-08T01:57:59.030Z,20.43
2023-03-08T02:00:27.895Z,18.50
2023-03-08T02:02:57.956Z,17.33
2023-03-08T02:05:27.209Z,19.50
2023-03-08T02:08:00.701Z,15.90
2023-03-08T02:10:35.027Z,17.60
2023-03-08T02:13:04.300Z,17.17
2023-03-08T02:15:33.061Z,19.53
2023-03-08T02:18:01.609Z,18.97
2023-03-08T02:20:30.618Z,18.17
2023-03-08T02:23:09.962Z,24.07
2023-03-08T02:25:38.389Z,21.37
2023-03-08T02:28:10.705Z,20.33
2023-03-08T02:30:39.913Z,17.40
2023-03-08T02:33:08.305Z,18.43
2023-03-08T02:35:38.654Z,15.23
2023-03-08T02:38:07.172Z,19.40
2023-03-08T02:40:37.210Z,17.20
2023-03-08T02:43:05.708Z,21.50
2023-03-08T02:45:34.629Z,22.83
2023-03-08T02:48:03.490Z,18.90
2023-03-08T02:50:32.118Z,20.93
2023-03-08T02:53:00.554Z,22.07
2023-03-08T02:55:28.959Z,20.10
2023-03-08T02:57:58.946Z,21.00
2023-03-08T03:00:27.346Z,17.60
2023-03-08T03:02:55.735Z,18.73
2023-03-08T03:05:24.218Z,25.10
2023-03-08T03:07:55.435Z,20.77
2023-03-08T03:10:24.009Z,23.30
2023-03-08T03:12:52.401Z,22.67
2023-03-08T03:15:25.125Z,23.27
2023-03-08T03:17:58.167Z,18.27
2023-03-08T03:20:27.022Z,20.40
2023-03-08T03:22:55.463Z,23.57
2023-03-08T03:25:29.899Z,20.83
2023-03-08T03:27:58.809Z,22.97
2023-03-08T03:30:31.047Z,21.33
2023-03-08T03:33:00.203Z,19.77
2023-03-08T03:35:32.089Z,27.00
2023-03-08T03:38:00.992Z,24.47
2023-03-08T03:40:29.744Z,20.73
2023-03-08T03:43:02.544Z,20.73
2023-03-08T03:45:32.745Z,23.53
2023-03-08T03:48:01.608Z,22.10
2023-03-08T03:50:30.840Z,23.43
2023-03-08T03:53:04.558Z,22.20
2023-03-08T03:55:33.457Z,23.57
2023-03-08T03:58:04.256Z,21.60
2023-03-08T04:00:35.300Z,21.80
2023-03-08T04:03:16.810Z,22.37
2023-03-08T04:05:45.334Z,24.80
2023-03-08T04:08:13.881Z,20.87
2023-03-08T04:10:43.622Z,26.73
2023-03-08T04:13:12.475Z,23.77
2023-03-08T04:15:43.584Z,23.67
2023-03-08T04:18:14.527Z,20.20
2023-03-08T04:20:46.376Z,25.30
2023-03-08T04:23:16.244Z,24.47
2023-03-08T04:25:48.613Z,23.57
2023-03-08T04:28:18.393Z,27.00
2023-03-08T04:30:48.762Z,26.03
2023-03-08T04:33:18.427Z,24.90
2023-03-08T04:35:50.376Z,23.80
2023-03-08T04:38:21.824Z,28.50
2023-03-08T04:41:05.251Z,24.93
2023-03-08T04:43:42.210Z,25.67
2023-03-08T04:46:12.668Z,23.90
2023-03-08T04:48:41.280Z,34.43
2023-03-08T04:51:11.231Z,38.30
2023-03-08T04:53:41.552Z,29.27
2023-03-08T04:56:11.315Z,26.57
2023-03-08T04:58:40.034Z,26.70
2023-03-08T05:01:14.715Z,27.57
2023-03-08T05:03:43.697Z,28.33
2023-03-08T05:06:14.060Z,24.60
2023-03-08T05:08:42.836Z,29.63
2023-03-08T05:11:11.469Z,27.23
2023-03-08T05:13:40.452Z,27.70
2023-03-08T05:16:10.591Z,27.63
2023-03-08T05:18:40.496Z,27.33
2023-03-08T05:21:11.652Z,27.30
2023-03-08T05:23:40.711Z,25.77
2023-03-08T05:26:10.718Z,32.93
2023-03-08T05:28:41.911Z,30.87
2023-03-08T05:31:13.764Z,33.00
2023-03-08T05:33:46.548Z,28.80
2023-03-08T05:36:17.854Z,29.47
2023-03-08T05:38:48.096Z,34.40
2023-03-08T05:41:18.140Z,34.80
2023-03-08T05:43:51.032Z,30.37
2023-03-08T05:46:21.082Z,33.70
2023-03-08T05:48:52.216Z,30.10
2023-03-08T05:51:21.680Z,31.47
2023-03-08T05:53:50.531Z,32.07
2023-03-08T05:56:21.494Z,33.43
2023-03-08T05:59:10.144Z,32.67
2023-03-08T06:01:38.696Z,29.30
2023-03-08T06:04:22.192Z,33.93
2023-03-08T06:06:52.379Z,29.33
2023-03-08T06:09:24.671Z,33.73
2023-03-08T06:11:53.701Z,32.20
2023-03-08T06:14:22.207Z,31.50
2023-03-08T06:16:52.511Z,31.47
2023-03-08T06:19:26.016Z,31.20
2023-03-08T06:21:57.095Z,31.60
2023-03-08T06:24:25.574Z,31.73
2023-03-08T06:26:55.711Z,30.63
2023-03-08T06:29:24.229Z,35.17
2023-03-08T06:31:52.992Z,32.73
2023-03-08T06:34:23.170Z,35.70
2023-03-08T06:36:59.657Z,34.40
2023-03-08T06:39:30.983Z,35.53
2023-03-08T06:42:02.670Z,28.77
2023-03-08T06:44:32.781Z,29.10
2023-03-08T06:47:01.192Z,33.70
2023-03-08T06:49:29.610Z,31.10
2023-03-08T06:51:59.434Z,34.17
2023-03-08T06:54:29.396Z,34.07
2023-03-08T06:56:57.888Z,32.00
2023-03-08T06:59:26.631Z,33.37
2023-03-08T07:01:55.334Z,28.77
2023-03-08T07:04:23.754Z,34.40
2023-03-08T07:06:52.285Z,31.33
2023-03-08T07:09:22.141Z,35.67
2023-03-08T07:11:50.700Z,35.10
2023-03-08T07:14:19.214Z,32.17
2023-03-08T07:16:48.682Z,30.73
2023-03-08T07:19:17.246Z,31.43
2023-03-08T07:21:45.706Z,32.50
2023-03-08T07:24:14.076Z,30.53
2023-03-08T07:26:43.896Z,32.07
2023-03-08T07:29:12.613Z,36.07
2023-03-08T07:31:41.452Z,31.37
2023-03-08T07:34:09.882Z,29.37
2023-03-08T07:36:39.857Z,31.27
2023-03-08T07:39:08.313Z,35.67
2023-03-08T07:41:37.998Z,31.90
2023-03-08T07:44:08.574Z,32.20
2023-03-08T07:46:37.263Z,32.33
2023-03-08T07:49:10.557Z,33.17
2023-03-08T07:51:39.109Z,37.73
2023-03-08T07:54:07.701Z,31.27
2023-03-08T07:56:36.248Z,31.50
2023-03-08T07:59:04.649Z,33.93
2023-03-08T08:01:34.559Z,33.87
2023-03-08T08:04:03.645Z,31.33
2023-03-08T08:06:32.369Z,36.47
2023-03-08T08:09:00.793Z,35.47
2023-03-08T08:11:29.639Z,31.90
2023-03-08T08:13:58.142Z,31.90
2023-03-08T08:16:26.884Z,31.90
2023-03-08T08:18:57.172Z,28.93
2023-03-08T08:21:27.181Z,31.20
2023-03-08T08:23:57.986Z,30.93
2023-03-08T08:26:26.616Z,28.73
2023-03-08T08:28:56.034Z,32.10
2023-03-08T08:31:25.408Z,31.20
2023-03-08T08:33:54.509Z,28.40
2023-03-08T08:36:24.456Z,28.87
2023-03-08T08:38:55.724Z,33.43
2023-03-08T08:41:25.220Z,32.90
2023-03-08T08:43:56.759Z,32.03
2023-03-08T08:46:25.140Z,33.97
2023-03-08T08:48:53.544Z,31.67
2023-03-08T08:51:22.431Z,31.40
2023-03-08T08:53:52.726Z,27.77
2023-03-08T08:56:29.053Z,32.33
2023-03-08T08:59:02.650Z,35.40
2023-03-08T09:01:32.556Z,33.57
2023-03-08T09:04:01.460Z,31.20
2023-03-08T09:06:31.076Z,29.87
2023-03-08T09:09:02.492Z,30.30
2023-03-08T09:11:30.981Z,32.33
2023-03-08T09:13:59.528Z,32.10
2023-03-08T09:16:29.104Z,29.97
2023-03-08T09:18:58.016Z,29.30
2023-03-08T09:21:27.347Z,31.10
2023-03-08T09:23:56.217Z,32.33
2023-03-08T09:26:25.987Z,33.00
2023-03-08T09:28:54.367Z,28.23
2023-03-08T09:31:23.939Z,29.37
2023-03-08T09:33:53.497Z,34.20
2023-03-08T09:36:22.276Z,32.43
2023-03-08T09:38:52.897Z,32.43
2023-03-08T09:41:33.488Z,31.73
2023-03-08T09:44:11.200Z,31.60
2023-03-08T09:46:42.294Z,32.73
2023-03-08T09:49:14.844Z,30.90
2023-03-08T09:51:46.366Z,32.63
2023-03-08T09:54:15.794Z,33.60
2023-03-08T09:56:48.235Z,30.07
2023-03-08T09:59:21.107Z,28.50
2023-03-08T10:01:54.400Z,30.20
2023-03-08T10:04:29.962Z,33.00
2023-03-08T10:07:04.161Z,32.00
2023-03-08T10:09:35.794Z,31.37
2023-03-08T10:12:15.618Z,31.67
2023-03-08T10:14:45.342Z,37.17
2023-03-08T10:17:14.833Z,32.13
2023-03-08T10:19:46.602Z,32.00
2023-03-08T10:22:18.336Z,38.00
2023-03-08T10:24:55.713Z,32.90
2023-03-08T10:27:26.910Z,31.73
2023-03-08T10:29:56.682Z,34.70
2023-03-08T10:32:26.081Z,29.17
2023-03-08T10:34:55.811Z,33.57
2023-03-08T10:37:24.506Z,37.03
2023-03-08T10:39:54.882Z,34.17
2023-03-08T10:42:24.390Z,31.03
2023-03-08T10:44:59.092Z,27.53
2023-03-08T10:47:29.268Z,31.40
2023-03-08T10:50:07.949Z,30.57
2023-03-08T10:52:36.436Z,29.23
2023-03-08T10:55:06.402Z,30.47
2023-03-08T10:57:35.188Z,29.33
2023-03-08T11:00:12.268Z,28.00
2023-03-08T11:02:41.082Z,26.63
2023-03-08T11:05:19.685Z,26.60
2023-03-08T11:07:52.640Z,30.50
2023-03-08T11:10:24.177Z,26.03
2023-03-08T11:13:02.311Z,26.40
2023-03-08T11:15:32.915Z,26.27
2023-03-08T11:18:05.226Z,28.17
2023-03-08T11:20:36.775Z,25.30
2023-03-08T11:23:12.436Z,25.07
2023-03-08T11:25:46.304Z,26.57
2023-03-08T11:28:32.543Z,26.00
2023-03-08T11:31:09.794Z,27.43
2023-03-08T11:33:55.364Z,27.03
2023-03-08T11:36:26.298Z,24.47
2023-03-08T11:38:58.861Z,24.73
2023-03-08T11:41:32.173Z,26.50
2023-03-08T11:44:11.612Z,25.73
2023-03-08T11:46:47.428Z,23.07
2023-03-08T11:49:22.932Z,24.77
2023-03-08T11:51:55.001Z,25.03
2023-03-08T11:54:29.212Z,23.20
2023-03-08T11:56:58.936Z,20.40
2023-03-08T11:59:31.727Z,19.97
2023-03-08T12:02:03.968Z,21.50
2023-03-08T12:04:35.083Z,19.93
2023-03-08T12:07:10.987Z,19.20
2023-03-08T12:09:42.398Z,16.97
2023-03-08T12:12:16.692Z,15.27
2023-03-08T12:14:51.173Z,13.13
2023-03-08T12:17:22.883Z,12.90
2023-03-08T12:19:53.904Z,12.57
2023-03-08T12:22:28.640Z,13.47
2023-03-08T12:25:00.448Z,13.53
2023-03-08T12:27:30.908Z,13.70
2023-03-08T12:30:02.878Z,10.30
2023-03-08T12:32:34.189Z,11.20
2023-03-08T12:35:05.358Z,11.50
2023-03-08T12:37:34.722Z,10.30
2023-03-08T12:40:07.442Z,9.33
2023-03-08T12:42:37.828Z,8.33
2023-03-08T12:45:24.546Z,8.30
2023-03-08T12:47:59.059Z,6.37
2023-03-08T12:50:28.746Z,7.63
2023-03-08T12:52:58.822Z,8.20
2023-03-08T12:55:32.505Z,7.10
2023-03-08T12:58:02.553Z,5.30
2023-03-08T13:00:32.828Z,5.57
2023-03-08T13:03:04.650Z,4.60
2023-03-08T13:05:34.901Z,5.20
2023-03-08T13:08:06.018Z,4.83
2023-03-08T13:10:36.497Z,6.23
2023-03-08T13:13:08.835Z,6.10
2023-03-08T13:15:38.012Z,7.00
2023-03-08T13:18:14.846Z,4.40
2023-03-08T13:21:01.288Z,4.50
2023-03-08T13:23:31.812Z,6.87
2023-03-08T13:26:12.097Z,3.77
2023-03-08T13:28:47.674Z,7.13
2023-03-08T13:31:19.503Z,3.43
2023-03-08T13:33:51.752Z,4.70
2023-03-08T13:36:21.708Z,4.93
2023-03-08T13:38:57.925Z,5.23
2023-03-08T13:41:34.304Z,5.50
2023-03-08T13:44:03.464Z,6.97
2023-03-08T13:46:32.096Z,3.50
2023-03-08T13:49:03.934Z,7.43
2023-03-08T13:51:32.509Z,4.43
2023-03-08T13:54:01.177Z,4.90
2023-03-08T13:56:30.000Z,4.50
2023-03-08T13:59:00.876Z,6.57
2023-03-08T14:01:29.611Z,4.63
2023-03-08T14:03:59.500Z,3.17
2023-03-08T14:06:33.657Z,3.67
2023-03-08T14:09:03.741Z,6.33
2023-03-08T14:11:33.439Z,2.80
2023-03-08T14:14:04.636Z,2.47
2023-03-08T14:16:34.586Z,3.67
2023-03-08T14:19:11.305Z,3.20
2023-03-08T14:21:49.509Z,5.57
2023-03-08T14:24:21.932Z,3.77
2023-03-08T14:26:55.927Z,2.57
2023-03-08T14:29:25.373Z,2.10
2023-03-08T14:31:55.643Z,5.33
2023-03-08T14:34:27.233Z,3.73
2023-03-08T14:36:58.819Z,2.80
2023-03-08T14:39:28.263Z,2.77
2023-03-08T14:41:57.553Z,4.37
2023-03-08T14:44:27.504Z,5.60
2023-03-08T14:46:59.528Z,2.97
2023-03-08T14:49:29.809Z,3.00
2023-03-08T14:51:59.971Z,5.47
2023-03-08T14:54:34.335Z,4.97
2023-03-08T14:57:21.922Z,4.27
2023-03-08T14:59:53.616Z,2.30
2023-03-08T15:02:22.141Z,2.67
2023-03-08T15:04:53.439Z,2.40
2023-03-08T15:07:24.646Z,4.07
2023-03-08T15:09:54.660Z,3.00
2023-03-08T15:12:23.237Z,4.20
2023-03-08T15:14:52.357Z,4.30
2023-03-08T15:17:22.721Z,3.10
2023-03-08T15:19:51.287Z,5.07
2023-03-08T15:22:22.573Z,3.57
2023-03-08T15:24:52.333Z,3.60
2023-03-08T15:27:20.924Z,5.50
2023-03-08T15:29:50.599Z,5.10
2023-03-08T15:32:19.150Z,2.63
2023-03-08T15:34:48.205Z,2.93
2023-03-08T15:37:16.840Z,2.60
2023-03-08T15:39:45.426Z,3.27
2023-03-08T15:42:15.285Z,7.87
2023-03-08T15:44:43.793Z,1.77
2023-03-08T15:47:12.205Z,4.90
2023-03-08T15:49:41.158Z,3.37
2023-03-08T15:52:12.194Z,2.87
2023-03-08T15:54:45.161Z,3.17
2023-03-08T15:57:18.501Z,1.90
2023-03-08T15:59:46.923Z,2.33
2023-03-08T16:02:17.028Z,2.20
2023-03-08T16:04:48.117Z,2.67
2023-03-08T16:07:17.663Z,3.13
2023-03-08T16:09:46.538Z,3.60
2023-03-08T16:12:16.779Z,2.17
2023-03-08T16:14:48.365Z,1.57
2023-03-08T16:17:17.646Z,2.03
2023-03-08T16:19:46.912Z,2.03
2023-03-08T16:22:15.655Z,3.27
2023-03-08T16:24:44.177Z,1.93
2023-03-08T16:27:14.158Z,1.87
2023-03-08T16:29:44.075Z,3.40
2023-03-08T16:32:17.589Z,3.13
2023-03-08T16:34:50.703Z,3.60
2023-03-08T16:37:20.305Z,2.10
2023-03-08T16:39:50.891Z,2.67
2023-03-08T16:42:23.093Z,3.97
2023-03-08T16:44:54.065Z,1.93
2023-03-08T16:47:23.880Z,2.13
2023-03-08T16:49:52.637Z,4.13
2023-03-08T16:52:21.268Z,3.37
2023-03-08T16:54:49.846Z,4.03
2023-03-08T16:57:20.129Z,1.40
2023-03-08T16:59:49.066Z,3.87
2023-03-08T17:02:19.776Z,3.67
2023-03-08T17:04:48.574Z,3.27
2023-03-08T17:07:17.254Z,3.13
2023-03-08T17:09:46.397Z,3.03
2023-03-08T17:12:16.542Z,2.00
2023-03-08T17:14:45.310Z,2.73
2023-03-08T17:17:14.467Z,2.47
2023-03-08T17:19:45.227Z,2.93
2023-03-08T17:22:13.709Z,7.17
2023-03-08T17:24:42.328Z,3.20
2023-03-08T17:27:10.835Z,4.27
2023-03-08T17:29:39.552Z,5.03
2023-03-08T17:32:08.674Z,2.83
2023-03-08T17:34:37.849Z,1.60
2023-03-08T17:37:12.025Z,4.23
2023-03-08T17:39:40.889Z,2.80
2023-03-08T17:42:10.185Z,3.53
2023-03-08T17:44:38.619Z,2.40
2023-03-08T17:47:07.295Z,3.17
2023-03-08T17:49:35.770Z,2.03
2023-03-08T17:52:04.153Z,2.67
2023-03-08T17:54:34.276Z,3.00
2023-03-08T17:57:02.733Z,3.40
2023-03-08T17:59:31.152Z,2.93
2023-03-08T18:01:59.892Z,3.97
2023-03-08T18:04:28.570Z,2.57
2023-03-08T18:06:57.157Z,3.10
2023-03-08T18:09:25.884Z,5.73
2023-03-08T18:11:56.974Z,3.03
2023-03-08T18:14:34.434Z,4.20
2023-03-08T18:17:08.377Z,5.47
2023-03-08T18:19:37.965Z,4.73
2023-03-08T18:22:06.588Z,2.70
2023-03-08T18:24:35.180Z,3.80
2023-03-08T18:27:06.313Z,4.63
2023-03-08T18:29:35.786Z,5.80
2023-03-08T18:32:04.351Z,3.67
2023-03-08T18:34:33.466Z,4.53
2023-03-08T18:37:01.999Z,4.47
2023-03-08T18:39:30.618Z,5.63
2023-03-08T18:42:01.874Z,3.27
2023-03-08T18:44:31.671Z,3.23
2023-03-08T18:47:00.734Z,4.17
2023-03-08T18:49:29.550Z,2.80
2023-03-08T18:51:59.092Z,5.33
2023-03-08T18:54:27.756Z,3.63
2023-03-08T18:56:58.728Z,4.10
2023-03-08T18:59:29.177Z,4.13
2023-03-08T19:01:59.547Z,3.13
2023-03-08T19:04:28.220Z,5.17
2023-03-08T19:06:56.693Z,3.80
2023-03-08T19:09:25.261Z,2.17
2023-03-08T19:11:53.708Z,3.80
2023-03-08T19:14:22.457Z,3.37
2023-03-08T19:16:51.094Z,1.63
2023-03-08T19:19:21.353Z,2.90
2023-03-08T19:21:50.732Z,1.77
2023-03-08T19:24:20.122Z,1.83
2023-03-08T19:26:50.300Z,3.43
2023-03-08T19:29:21.942Z,2.00
2023-03-08T19:31:51.888Z,3.43
2023-03-08T19:34:22.251Z,2.67
2023-03-08T19:36:52.218Z,1.60
2023-03-08T19:39:22.622Z,2.80
2023-03-08T19:41:51.125Z,3.10
2023-03-08T19:44:20.133Z,2.07
2023-03-08T19:46:49.276Z,1.93
2023-03-08T19:49:18.861Z,1.40
2023-03-08T19:51:50.019Z,1.57
2023-03-08T19:54:18.626Z,1.37
2023-03-08T19:56:47.454Z,3.17
2023-03-08T19:59:17.396Z,2.17
2023-03-08T20:01:46.245Z,2.00
2023-03-08T20:04:15.918Z,0.90
2023-03-08T20:06:46.431Z,1.00
2023-03-08T20:09:23.630Z,1.87
2023-03-08T20:11:57.409Z,2.37
2023-03-08T20:14:27.875Z,2.40
2023-03-08T20:16:56.890Z,1.60
2023-03-08T20:19:25.953Z,2.70
2023-03-08T20:21:54.507Z,1.70
2023-03-08T20:24:24.413Z,1.43
2023-03-08T20:26:53.093Z,2.20
2023-03-08T20:29:21.835Z,1.60
2023-03-08T20:31:50.780Z,2.73
2023-03-08T20:34:19.413Z,1.47
2023-03-08T20:36:48.059Z,2.43
2023-03-08T20:39:16.545Z,1.97
2023-03-08T20:41:46.443Z,2.10
2023-03-08T20:44:14.826Z,1.60
2023-03-08T20:46:43.534Z,2.97
2023-03-08T20:49:12.476Z,3.60
2023-03-08T20:51:41.109Z,2.67
2023-03-08T20:54:10.116Z,3.73
2023-03-08T20:56:38.892Z,5.27
2023-03-08T20:59:08.738Z,3.03
2023-03-08T21:01:37.675Z,4.07
2023-03-08T21:04:07.088Z,1.83
2023-03-08T21:06:35.852Z,4.60
2023-03-08T21:09:05.905Z,2.80
2023-03-08T21:11:34.764Z,6.43
2023-03-08T21:14:03.805Z,4.73
2023-03-08T21:16:35.090Z,5.77
2023-03-08T21:19:04.964Z,4.73
2023-03-08T21:21:35.866Z,3.83
2023-03-08T21:24:05.931Z,4.40
2023-03-08T21:26:34.697Z,4.93
2023-03-08T21:29:05.435Z,4.10
2023-03-08T21:31:36.194Z,3.37
2023-03-08T21:34:05.092Z,4.20
2023-03-08T21:36:34.322Z,6.33
2023-03-08T21:39:03.455Z,4.50
2023-03-08T21:41:33.427Z,5.93
2023-03-08T21:44:03.200Z,5.47
2023-03-08T21:46:32.160Z,5.90
2023-03-08T21:49:02.211Z,4.60
2023-03-08T21:51:32.325Z,6.00
2023-03-08T21:54:01.285Z,8.13
2023-03-08T21:56:30.176Z,4.90
2023-03-08T21:58:59.000Z,6.63
2023-03-08T22:01:29.677Z,7.77
2023-03-08T22:03:59.239Z,4.67
2023-03-08T22:06:29.466Z,7.47
2023-03-08T22:09:00.347Z,6.07
2023-03-08T22:11:29.172Z,7.20
2023-03-08T22:13:59.082Z,5.27
2023-03-08T22:16:28.496Z,5.03
2023-03-08T22:18:58.099Z,6.23
2023-03-08T22:21:26.830Z,4.87
2023-03-08T22:23:57.879Z,5.23
2023-03-08T22:26:28.458Z,4.30
2023-03-08T22:28:57.513Z,4.17
2023-03-08T22:31:27.092Z,7.03
2023-03-08T22:33:55.905Z,6.77
2023-03-08T22:36:25.118Z,5.37
2023-03-08T22:38:53.636Z,4.20
2023-03-08T22:41:24.799Z,4.67
2023-03-08T22:43:53.533Z,6.17
2023-03-08T22:46:22.689Z,3.63
2023-03-08T22:48:51.627Z,5.97
2023-03-08T22:51:21.160Z,3.40
2023-03-08T22:53:49.920Z,5.10
2023-03-08T22:56:22.492Z,7.30
2023-03-08T22:58:52.674Z,7.47
2023-03-08T23:01:22.636Z,4.73
2023-03-08T23:03:51.675Z,5.33
2023-03-08T23:06:20.726Z,3.73
2023-03-08T23:08:49.434Z,4.63
2023-03-08T23:11:18.049Z,4.40
2023-03-08T23:13:47.005Z,3.17
2023-03-08T23:16:18.466Z,5.10
2023-03-08T23:18:49.778Z,3.70
2023-03-08T23:21:19.039Z,3.87
2023-03-08T23:23:47.604Z,5.20
2023-03-08T23:26:17.195Z,5.73
2023-03-08T23:28:46.013Z,3.67
2023-03-08T23:31:16.284Z,5.30
2023-03-08T23:33:46.970Z,3.80
2023-03-08T23:36:16.748Z,6.83
2023-03-08T23:38:45.893Z,6.83
2023-03-08T23:41:15.057Z,6.20
2023-03-08T23:43:43.632Z,4.90
2023-03-08T23:46:14.269Z,4.33
2023-03-08T23:48:42.781Z,3.67
2023-03-08T23:51:15.002Z,3.70
2023-03-08T23:53:43.406Z,3.77
2023-03-08T23:56:18.005Z,2.90
2023-03-08T23:58:46.444Z,2.93
